Time;durP1;ratioP1;P1;durP2;ratioP2;P2;SDS_P1;SDS_P2;PMS_P1;PMS_P2;Temp;Humidity;BMP_temperature;BMP_pressure;BME280_temperature;BME280_humidity;BME280_pressure;Samples;Min_cycle;Max_cycle;Signal;HPM_P1;HPM_P2
2023/01/24 00:00:35;;;;;;;0.40;0.40;;;2.90;99.90;;;;;;5068445;28;20190;-83
2023/01/24 00:03:01;;;;;;;0.40;0.40;;;2.90;99.90;;;;;;5069293;28;20239;-83
2023/01/24 00:05:26;;;;;;;0.30;0.30;;;2.90;99.90;;;;;;5068904;28;20291;-83
2023/01/24 00:07:52;;;;;;;0.40;0.40;;;2.90;99.90;;;;;;5060683;28;20281;-82
2023/01/24 00:10:17;;;;;;;0.40;0.40;;;2.90;99.90;;;;;;5064333;28;20226;-83
2023/01/24 00:12:43;;;;;;;0.37;0.37;;;2.80;99.90;;;;;;5068517;28;20178;-83
2023/01/24 00:15:09;;;;;;;0.40;0.40;;;2.90;99.90;;;;;;5065084;28;20190;-82
2023/01/24 00:17:35;;;;;;;0.40;0.40;;;2.80;99.90;;;;;;5067299;28;20181;-83
2023/01/24 00:20:01;;;;;;;0.33;0.33;;;2.70;99.90;;;;;;5068259;28;20566;-83
2023/01/24 00:22:26;;;;;;;0.40;0.40;;;2.80;99.90;;;;;;5065459;28;20186;-82
2023/01/24 00:24:52;;;;;;;0.30;0.30;;;2.80;99.90;;;;;;5059171;28;20201;-83
2023/01/24 00:27:17;;;;;;;0.40;0.40;;;2.80;99.90;;;;;;5063320;28;20174;-83
2023/01/24 00:29:43;;;;;;;0.40;0.40;;;2.70;99.90;;;;;;5068667;28;20301;-82
2023/01/24 00:32:09;;;;;;;0.30;0.30;;;2.80;99.90;;;;;;5063982;28;20265;-83
2023/01/24 00:34:35;;;;;;;0.47;0.47;;;2.80;99.90;;;;;;5065620;28;21066;-83
2023/01/24 00:37:00;;;;;;;0.40;0.40;;;2.70;99.90;;;;;;5068050;28;20248;-82
2023/01/24 00:39:26;;;;;;;0.30;0.30;;;2.80;99.90;;;;;;5067278;28;20700;-83
2023/01/24 00:41:51;;;;;;;0.40;0.40;;;2.80;99.90;;;;;;5065654;28;20220;-82
2023/01/24 00:44:17;;;;;;;0.40;0.40;;;2.80;99.90;;;;;;5060902;28;20209;-83
2023/01/24 00:46:42;;;;;;;0.33;0.33;;;2.70;99.90;;;;;;5068124;28;20186;-83
2023/01/24 00:49:08;;;;;;;0.30;0.30;;;2.70;99.90;;;;;;5068152;28;20196;-82
2023/01/24 00:51:34;;;;;;;0.30;0.30;;;2.70;99.90;;;;;;5068732;28;20269;-82
2023/01/24 00:53:59;;;;;;;0.40;0.40;;;2.80;99.90;;;;;;5065844;28;20932;-83
2023/01/24 00:56:25;;;;;;;0.40;0.40;;;2.70;99.90;;;;;;5067329;28;20218;-83
2023/01/24 00:58:50;;;;;;;0.40;0.40;;;2.80;99.90;;;;;;5059590;28;20229;-83
2023/01/24 01:01:16;;;;;;;0.40;0.40;;;2.70;99.90;;;;;;5066109;28;20197;-83
2023/01/24 01:03:41;;;;;;;0.40;0.40;;;2.80;99.90;;;;;;5067439;28;20312;-82
2023/01/24 01:06:11;;;;;;;0.40;0.40;;;2.80;99.90;;;;;;5068316;28;20219;-83
2023/01/24 01:08:37;;;;;;;0.37;0.37;;;2.80;99.90;;;;;;5063098;28;20258;-83
2023/01/24 01:11:03;;;;;;;0.37;0.37;;;2.70;99.90;;;;;;5061542;28;20530;-82
2023/01/24 01:13:29;;;;;;;0.40;0.40;;;2.70;99.90;;;;;;5066892;28;20190;-83
2023/01/24 01:16:16;;;;;;;0.40;0.40;;;2.70;99.90;;;;;;5065028;28;20474;-82
2023/01/24 01:18:41;;;;;;;0.40;0.40;;;2.70;99.90;;;;;;5069842;28;20463;-82
2023/01/24 01:21:07;;;;;;;0.40;0.40;;;2.70;99.90;;;;;;5067116;28;20975;-82
2023/01/24 01:23:32;;;;;;;0.40;0.40;;;2.80;99.90;;;;;;5065487;28;20186;-83
2023/01/24 01:26:04;;;;;;;0.40;0.40;;;2.80;99.90;;;;;;5063915;28;20197;-82
2023/01/24 01:28:30;;;;;;;0.30;0.30;;;2.80;99.90;;;;;;5067331;28;20190;-83
2023/01/24 01:30:56;;;;;;;0.40;0.40;;;2.80;99.90;;;;;;5066537;28;20522;-83
2023/01/24 01:33:22;;;;;;;0.50;0.50;;;2.80;99.90;;;;;;5066880;28;20919;-82
2023/01/24 01:35:49;;;;;;;0.40;0.40;;;2.70;99.90;;;;;;5068664;28;20988;-82
2023/01/24 01:38:16;;;;;;;0.30;0.30;;;2.80;99.90;;;;;;5068791;28;20476;-82
2023/01/24 01:40:42;;;;;;;0.40;0.40;;;2.70;99.90;;;;;;5067789;28;20496;-82
2023/01/24 01:43:19;;;;;;;0.40;0.40;;;2.70;99.90;;;;;;5067498;28;20447;-83
2023/01/24 01:45:53;;;;;;;0.43;0.43;;;2.80;99.90;;;;;;5061286;28;20956;-83
2023/01/24 01:48:42;;;;;;;0.40;0.40;;;2.80;99.90;;;;;;5062822;28;20443;-83
2023/01/24 01:51:51;;;;;;;0.40;0.40;;;2.70;99.90;;;;;;5066413;28;20477;-83
2023/01/24 01:54:21;;;;;;;0.30;0.30;;;2.70;99.90;;;;;;5055913;28;20858;-82
2023/01/24 01:57:12;;;;;;;0.40;0.40;;;2.70;99.90;;;;;;5062816;28;20443;-82
2023/01/24 01:59:43;;;;;;;0.50;0.50;;;2.70;99.90;;;;;;5066354;28;20544;-82
2023/01/24 02:02:09;;;;;;;0.50;0.50;;;2.70;99.90;;;;;;5064228;28;20967;-83
2023/01/24 02:04:38;;;;;;;0.40;0.40;;;2.70;99.90;;;;;;5062933;28;20511;-82
2023/01/24 02:07:14;;;;;;;0.40;0.40;;;2.70;99.90;;;;;;5060639;28;20466;-82
2023/01/24 02:09:45;;;;;;;0.50;0.50;;;2.70;99.90;;;;;;5070302;28;20448;-82
2023/01/24 02:12:20;;;;;;;0.40;0.40;;;2.70;99.90;;;;;;5072427;28;20447;-82
2023/01/24 02:17:33;;;;;;;0.40;0.40;;;2.60;99.90;;;;;;5067035;28;20488;-83
2023/01/24 02:20:20;;;;;;;0.30;0.30;;;2.60;99.90;;;;;;5071388;28;20574;-83
2023/01/24 02:23:13;;;;;;;0.37;0.37;;;2.60;99.90;;;;;;5061955;28;20258;-83
2023/01/24 02:25:51;;;;;;;0.40;0.40;;;2.70;99.90;;;;;;5071200;28;20505;-83
2023/01/24 02:28:17;;;;;;;0.40;0.40;;;2.60;99.90;;;;;;5063522;28;20443;-82
2023/01/24 02:30:42;;;;;;;0.40;0.40;;;2.60;99.90;;;;;;5064214;28;20463;-83
2023/01/24 02:33:11;;;;;;;0.33;0.33;;;2.60;99.90;;;;;;5070217;28;21268;-82
2023/01/24 02:35:36;;;;;;;0.40;0.40;;;2.60;99.90;;;;;;5070039;28;20186;-83
2023/01/24 02:38:06;;;;;;;0.37;0.37;;;2.70;99.90;;;;;;5067246;28;20439;-83
2023/01/24 02:40:33;;;;;;;0.40;0.40;;;2.60;99.90;;;;;;5067843;28;20190;-82
2023/01/24 02:43:01;;;;;;;0.40;0.40;;;2.60;99.90;;;;;;5071382;28;20448;-83
2023/01/24 02:45:29;;;;;;;0.40;0.40;;;2.60;99.90;;;;;;5067677;28;20470;-83
2023/01/24 02:47:56;;;;;;;0.40;0.40;;;2.70;99.90;;;;;;5072773;28;20946;-83
2023/01/24 02:50:24;;;;;;;0.40;0.40;;;2.70;99.90;;;;;;5066921;28;20506;-83
2023/01/24 02:58:26;;;;;;;0.40;0.40;;;2.60;99.90;;;;;;5040154;28;20985;-83
2023/01/24 03:00:52;;;;;;;0.40;0.40;;;2.70;99.90;;;;;;5068122;28;20475;-81
2023/01/24 03:03:18;;;;;;;0.40;0.40;;;2.60;99.90;;;;;;5071269;28;20916;-80
2023/01/24 03:05:58;;;;;;;0.47;0.47;;;2.70;99.90;;;;;;5068196;28;20701;-81
2023/01/24 03:08:29;;;;;;;0.40;0.40;;;2.70;99.90;;;;;;5069556;28;20221;-81
2023/01/24 03:10:55;;;;;;;0.30;0.30;;;2.70;99.90;;;;;;5062763;28;20436;-80
2023/01/24 03:35:16;;;;;;;0.40;0.40;;;2.50;99.90;;;;;;5063284;28;20443;-81
2023/01/24 03:40:25;;;;;;;0.30;0.30;;;2.50;99.90;;;;;;5069655;28;20254;-81
2023/01/24 03:42:51;;;;;;;0.43;0.43;;;2.50;99.90;;;;;;5068090;28;20444;-81
2023/01/24 03:45:25;;;;;;;0.37;0.37;;;2.50;99.90;;;;;;5067673;28;20197;-81
2023/01/24 03:47:56;;;;;;;0.50;0.50;;;2.60;99.90;;;;;;5060523;28;20189;-81
2023/01/24 03:53:12;;;;;;;0.30;0.30;;;2.60;99.90;;;;;;5065772;28;20459;-82
2023/01/24 03:55:38;;;;;;;0.40;0.40;;;2.60;99.90;;;;;;5068873;28;20448;-81
2023/01/24 03:58:04;;;;;;;0.33;0.33;;;2.60;99.90;;;;;;5069129;28;20440;-82
2023/01/24 04:00:31;;;;;;;0.40;0.40;;;2.60;99.90;;;;;;5068546;28;20484;-82
2023/01/24 04:02:57;;;;;;;0.50;0.50;;;2.60;99.90;;;;;;5067296;28;20531;-81
2023/01/24 04:05:23;;;;;;;0.30;0.30;;;2.60;99.90;;;;;;5051793;28;20878;-81
2023/01/24 04:07:48;;;;;;;0.50;0.50;;;2.60;99.90;;;;;;5059149;28;20444;-81
2023/01/24 04:10:14;;;;;;;0.33;0.33;;;2.60;99.90;;;;;;5070415;28;20458;-82
2023/01/24 04:12:41;;;;;;;0.43;0.43;;;2.60;99.90;;;;;;5066598;28;20186;-83
2023/01/24 04:15:07;;;;;;;0.40;0.40;;;2.60;99.90;;;;;;5064556;28;20523;-83
2023/01/24 04:17:33;;;;;;;0.50;0.50;;;2.50;99.90;;;;;;5068532;28;20513;-81
2023/01/24 04:19:58;;;;;;;0.40;0.40;;;2.50;99.90;;;;;;5068287;28;20480;-81
2023/01/24 04:22:24;;;;;;;0.40;0.40;;;2.50;99.90;;;;;;5067902;28;20182;-81
2023/01/24 04:24:50;;;;;;;0.40;0.40;;;2.50;99.90;;;;;;5068552;28;20235;-81
2023/01/24 04:27:15;;;;;;;0.40;0.40;;;2.50;99.90;;;;;;5068040;28;20186;-82
2023/01/24 04:29:41;;;;;;;0.40;0.40;;;2.50;99.90;;;;;;5065475;28;20182;-82
2023/01/24 04:32:07;;;;;;;0.40;0.40;;;2.50;99.90;;;;;;5067462;28;20216;-82
2023/01/24 04:34:32;;;;;;;0.40;0.40;;;2.50;99.90;;;;;;5068988;28;20186;-81
2023/01/24 04:36:58;;;;;;;0.40;0.40;;;2.50;99.90;;;;;;5063400;28;21161;-81
2023/01/24 04:39:24;;;;;;;0.40;0.40;;;2.50;99.90;;;;;;5068182;28;20225;-81
2023/01/24 04:41:49;;;;;;;0.40;0.40;;;2.50;99.90;;;;;;5069803;28;20201;-81
2023/01/24 04:44:14;;;;;;;0.50;0.50;;;2.50;99.90;;;;;;5065896;28;20195;-81
2023/01/24 04:46:40;;;;;;;0.40;0.40;;;2.50;99.90;;;;;;5066619;28;20409;-81
2023/01/24 04:49:05;;;;;;;0.40;0.40;;;2.40;99.90;;;;;;5068686;28;20190;-82
2023/01/24 04:51:31;;;;;;;0.40;0.40;;;2.50;99.90;;;;;;5065336;28;20658;-81
2023/01/24 04:53:56;;;;;;;0.30;0.30;;;2.50;99.90;;;;;;5064381;28;20192;-81
2023/01/24 04:56:22;;;;;;;0.40;0.40;;;2.50;99.90;;;;;;5061473;28;20554;-81
2023/01/24 04:58:47;;;;;;;0.40;0.40;;;2.50;99.90;;;;;;5064559;28;20208;-81
2023/01/24 05:01:13;;;;;;;0.40;0.40;;;2.50;99.90;;;;;;5067748;28;20896;-81
2023/01/24 05:03:38;;;;;;;0.40;0.40;;;2.50;99.90;;;;;;5065750;28;20190;-81
2023/01/24 05:06:04;;;;;;;0.40;0.40;;;2.40;99.90;;;;;;5069509;28;20548;-81
2023/01/24 05:08:30;;;;;;;0.40;0.40;;;2.40;99.90;;;;;;5067599;28;20186;-81
2023/01/24 05:10:59;;;;;;;0.30;0.30;;;2.40;99.90;;;;;;5070644;28;20186;-81
2023/01/24 05:13:25;;;;;;;0.40;0.40;;;2.50;99.90;;;;;;5066957;28;20190;-81
2023/01/24 05:15:51;;;;;;;0.50;0.50;;;2.40;99.90;;;;;;5065730;28;20838;-81
2023/01/24 05:18:17;;;;;;;0.40;0.40;;;2.40;99.90;;;;;;5066253;28;20196;-81
2023/01/24 05:20:43;;;;;;;0.40;0.40;;;2.50;99.90;;;;;;5065994;28;20466;-81
2023/01/24 05:23:09;;;;;;;0.40;0.40;;;2.40;99.90;;;;;;5066007;28;20461;-81
2023/01/24 05:25:34;;;;;;;0.40;0.40;;;2.40;99.90;;;;;;5061564;28;20532;-81
2023/01/24 05:28:00;;;;;;;0.40;0.40;;;2.50;99.90;;;;;;5066010;28;20170;-81
2023/01/24 05:30:25;;;;;;;0.30;0.30;;;2.50;99.90;;;;;;5063329;28;20683;-81
2023/01/24 05:32:54;;;;;;;0.37;0.37;;;2.50;99.90;;;;;;5065958;28;20194;-81
2023/01/24 05:35:20;;;;;;;0.40;0.40;;;2.50;99.90;;;;;;5059775;28;20281;-81
2023/01/24 05:37:46;;;;;;;0.50;0.50;;;2.50;99.90;;;;;;5065812;28;20439;-81
2023/01/24 05:40:11;;;;;;;0.40;0.40;;;2.50;99.90;;;;;;5068497;28;20891;-81
2023/01/24 05:42:37;;;;;;;0.40;0.40;;;2.50;99.90;;;;;;5063710;28;20181;-81
2023/01/24 05:45:03;;;;;;;0.40;0.40;;;2.50;99.90;;;;;;5067443;28;20188;-81
2023/01/24 05:47:28;;;;;;;0.40;0.40;;;2.50;99.90;;;;;;5055514;28;20187;-81
2023/01/24 05:49:54;;;;;;;0.40;0.40;;;2.50;99.90;;;;;;5049192;28;20414;-81
2023/01/24 05:52:22;;;;;;;0.50;0.50;;;2.40;99.90;;;;;;5058463;28;20268;-81
2023/01/24 05:54:48;;;;;;;0.40;0.40;;;2.50;99.90;;;;;;5062946;28;20624;-81
2023/01/24 05:57:15;;;;;;;0.40;0.40;;;2.40;99.90;;;;;;5057215;28;20437;-81
2023/01/24 05:59:40;;;;;;;0.40;0.40;;;2.50;99.90;;;;;;5054783;28;20488;-81
2023/01/24 06:02:06;;;;;;;0.40;0.40;;;2.50;99.90;;;;;;5059515;28;20447;-81
2023/01/24 06:04:31;;;;;;;0.40;0.40;;;2.50;99.90;;;;;;5055644;28;20233;-82
2023/01/24 06:06:57;;;;;;;0.50;0.50;;;2.40;99.90;;;;;;5061192;28;20190;-81
2023/01/24 06:09:23;;;;;;;0.50;0.50;;;2.40;99.90;;;;;;5062395;28;20602;-81
2023/01/24 06:11:49;;;;;;;0.40;0.40;;;2.40;99.90;;;;;;5066584;28;20654;-81
2023/01/24 06:14:14;;;;;;;0.40;0.40;;;2.40;99.90;;;;;;5066583;28;20451;-81
2023/01/24 06:16:42;;;;;;;0.40;0.40;;;2.30;99.90;;;;;;5067064;28;20190;-82
2023/01/24 06:19:10;;;;;;;0.40;0.40;;;2.40;99.90;;;;;;5064549;28;20241;-81
2023/01/24 06:21:44;;;;;;;0.50;0.50;;;2.30;99.90;;;;;;5064394;28;20874;-81
2023/01/24 06:24:17;;;;;;;0.40;0.40;;;2.30;99.90;;;;;;5065052;28;20448;-81
2023/01/24 06:26:42;;;;;;;0.40;0.40;;;2.40;99.90;;;;;;5061711;28;20455;-81
2023/01/24 06:29:12;;;;;;;0.50;0.50;;;2.30;99.90;;;;;;5061527;28;20440;-80
2023/01/24 06:32:03;;;;;;;0.40;0.40;;;2.30;99.90;;;;;;5064788;28;20265;-81
2023/01/24 06:35:07;;;;;;;0.40;0.40;;;2.40;99.90;;;;;;5058057;28;20476;-83
2023/01/24 06:37:48;;;;;;;0.40;0.40;;;2.30;99.90;;;;;;5067955;28;20518;-82
2023/01/24 06:40:16;;;;;;;0.40;0.40;;;2.40;99.90;;;;;;5061753;28;20475;-83
2023/01/24 06:42:42;;;;;;;0.40;0.40;;;2.40;99.90;;;;;;5062930;28;20445;-82
2023/01/24 06:45:08;;;;;;;0.40;0.40;;;2.30;99.90;;;;;;5064916;28;20951;-81
2023/01/24 06:47:34;;;;;;;0.40;0.40;;;2.30;99.90;;;;;;5063185;28;20208;-82
2023/01/24 06:49:59;;;;;;;0.40;0.40;;;2.30;99.90;;;;;;5065725;28;20990;-82
2023/01/24 06:52:25;;;;;;;0.50;0.50;;;2.30;99.90;;;;;;5070592;23;20186;-81
2023/01/24 06:54:50;;;;;;;0.40;0.40;;;2.40;99.90;;;;;;5056791;28;20206;-81
2023/01/24 06:57:16;;;;;;;0.40;0.40;;;2.40;99.90;;;;;;5056966;28;20208;-81
2023/01/24 06:59:41;;;;;;;0.50;0.50;;;2.30;99.90;;;;;;5058142;28;20265;-81
2023/01/24 07:02:09;;;;;;;0.40;0.40;;;2.30;99.90;;;;;;5057963;28;20183;-81
2023/01/24 07:04:36;;;;;;;0.50;0.50;;;2.30;99.90;;;;;;5059818;28;20193;-81
2023/01/24 07:07:02;;;;;;;0.40;0.40;;;2.30;99.90;;;;;;5062982;28;20532;-82
2023/01/24 07:09:27;;;;;;;0.40;0.40;;;2.30;99.90;;;;;;5070118;28;20432;-82
2023/01/24 07:11:56;;;;;;;0.40;0.40;;;2.30;99.90;;;;;;5068139;28;21108;-82
2023/01/24 07:14:22;;;;;;;0.50;0.50;;;2.20;99.90;;;;;;5060461;28;20174;-82
2023/01/24 07:16:49;;;;;;;0.50;0.50;;;2.20;99.90;;;;;;5060124;28;20812;-82
2023/01/24 07:19:18;;;;;;;0.50;0.50;;;2.20;99.90;;;;;;5057429;28;20225;-82
2023/01/24 07:21:44;;;;;;;0.40;0.40;;;2.10;99.90;;;;;;5059690;28;20451;-82
2023/01/24 07:24:16;;;;;;;0.50;0.50;;;2.20;99.90;;;;;;5059353;28;20459;-81
2023/01/24 07:26:42;;;;;;;0.50;0.50;;;2.20;99.90;;;;;;5060783;28;20448;-82
2023/01/24 07:29:07;;;;;;;0.40;0.40;;;2.20;99.90;;;;;;5057056;28;20428;-81
2023/01/24 07:31:33;;;;;;;0.50;0.50;;;2.20;99.90;;;;;;5056054;28;20455;-82
2023/01/24 07:33:58;;;;;;;0.40;0.40;;;2.20;99.90;;;;;;5061008;28;20251;-82
2023/01/24 07:36:24;;;;;;;0.50;0.50;;;2.20;99.90;;;;;;5054260;28;20190;-83
2023/01/24 07:38:53;;;;;;;0.40;0.40;;;2.20;99.90;;;;;;5063012;28;20266;-83
2023/01/24 07:41:19;;;;;;;0.40;0.40;;;2.20;99.90;;;;;;5055639;28;20666;-84
2023/01/24 07:43:44;;;;;;;0.40;0.40;;;2.30;99.90;;;;;;5063827;28;20480;-81
2023/01/24 07:46:10;;;;;;;0.40;0.40;;;2.20;99.90;;;;;;5063874;28;20186;-81
2023/01/24 07:48:35;;;;;;;0.40;0.40;;;2.30;99.90;;;;;;5070745;28;20186;-81
2023/01/24 07:51:01;;;;;;;0.40;0.40;;;2.30;99.90;;;;;;5060475;28;20281;-82
2023/01/24 07:53:27;;;;;;;0.50;0.50;;;2.30;99.90;;;;;;5066526;28;20249;-82
2023/01/24 07:55:52;;;;;;;0.50;0.50;;;2.20;99.90;;;;;;5064997;28;20231;-81
2023/01/24 07:58:18;;;;;;;0.47;0.47;;;2.20;99.90;;;;;;5061864;28;20182;-80
2023/01/24 08:00:44;;;;;;;0.50;0.50;;;2.20;99.90;;;;;;5052394;28;20189;-81
2023/01/24 08:03:10;;;;;;;0.40;0.40;;;2.30;99.90;;;;;;5064818;28;20186;-81
2023/01/24 08:05:38;;;;;;;0.50;0.50;;;2.30;99.90;;;;;;5071270;28;20424;-81
2023/01/24 08:08:04;;;;;;;0.40;0.40;;;2.30;99.90;;;;;;5070286;28;20423;-81
2023/01/24 08:10:30;;;;;;;0.30;0.30;;;2.30;99.90;;;;;;5071472;28;20420;-81
2023/01/24 08:12:56;;;;;;;0.40;0.40;;;2.30;99.90;;;;;;5068638;28;20197;-81
2023/01/24 08:15:21;;;;;;;0.50;0.50;;;2.30;99.90;;;;;;5060184;28;20791;-81
2023/01/24 08:17:47;;;;;;;0.43;0.43;;;2.30;99.90;;;;;;5063039;28;20474;-82
2023/01/24 08:20:13;;;;;;;0.40;0.40;;;2.40;99.90;;;;;;5064902;28;20213;-81
2023/01/24 08:22:40;;;;;;;0.50;0.50;;;2.40;99.90;;;;;;5065879;28;20236;-81
2023/01/24 08:25:06;;;;;;;0.40;0.40;;;2.40;99.90;;;;;;5068365;28;20552;-81
2023/01/24 08:27:32;;;;;;;0.50;0.50;;;2.50;99.90;;;;;;5062008;28;20447;-81
2023/01/24 08:29:58;;;;;;;0.50;0.50;;;2.40;99.90;;;;;;5062137;28;20444;-81
2023/01/24 08:32:23;;;;;;;0.47;0.47;;;2.30;99.90;;;;;;5071078;28;20220;-81
2023/01/24 08:34:49;;;;;;;0.40;0.40;;;2.40;99.90;;;;;;5062500;28;20555;-81
2023/01/24 08:37:15;;;;;;;0.50;0.50;;;2.40;99.90;;;;;;5067545;28;20264;-81
2023/01/24 08:39:40;;;;;;;0.40;0.40;;;2.40;99.90;;;;;;5069262;28;20227;-81
2023/01/24 08:42:06;;;;;;;0.50;0.50;;;2.30;99.90;;;;;;5065921;28;20189;-81
2023/01/24 08:44:31;;;;;;;0.50;0.50;;;2.40;99.90;;;;;;5064155;28;20182;-81
2023/01/24 08:46:57;;;;;;;0.40;0.40;;;2.50;99.90;;;;;;5068954;28;20684;-81
2023/01/24 08:49:23;;;;;;;0.37;0.37;;;2.40;99.90;;;;;;5062286;28;20243;-81
2023/01/24 08:51:48;;;;;;;0.50;0.50;;;2.50;99.90;;;;;;5066372;28;20217;-83
2023/01/24 08:54:14;;;;;;;0.50;0.50;;;2.50;99.90;;;;;;5059433;28;20662;-84
2023/01/24 08:56:40;;;;;;;0.47;0.47;;;2.40;99.90;;;;;;5065287;28;20181;-83
2023/01/24 08:59:05;;;;;;;0.50;0.50;;;2.40;99.90;;;;;;5067696;28;20541;-83
2023/01/24 09:01:33;;;;;;;0.30;0.30;;;2.40;99.90;;;;;;5063560;28;20251;-83
2023/01/24 09:03:59;;;;;;;0.40;0.40;;;2.40;99.90;;;;;;5064054;28;20221;-81
2023/01/24 09:06:25;;;;;;;0.50;0.50;;;2.50;99.90;;;;;;5061757;28;20440;-81
2023/01/24 09:08:54;;;;;;;0.50;0.50;;;2.50;99.90;;;;;;5065743;28;20448;-81
2023/01/24 09:11:20;;;;;;;0.50;0.50;;;2.50;99.90;;;;;;5068129;28;20470;-80
2023/01/24 09:13:46;;;;;;;0.40;0.40;;;2.60;99.90;;;;;;5068196;28;20435;-82
2023/01/24 09:16:11;;;;;;;0.40;0.40;;;2.60;99.90;;;;;;5069718;28;20424;-81
2023/01/24 09:18:37;;;;;;;0.50;0.50;;;2.60;99.90;;;;;;5059969;28;20215;-82
2023/01/24 09:21:03;;;;;;;0.40;0.40;;;2.60;99.90;;;;;;5059193;28;20190;-81
2023/01/24 09:23:29;;;;;;;0.50;0.50;;;2.60;99.90;;;;;;5061817;28;20680;-82
2023/01/24 09:25:54;;;;;;;0.50;0.50;;;2.40;99.90;;;;;;5057528;28;20444;-81
2023/01/24 09:28:21;;;;;;;0.50;0.50;;;2.40;99.90;;;;;;5068035;28;20218;-81
2023/01/24 09:30:48;;;;;;;0.40;0.40;;;2.30;99.90;;;;;;5066353;28;20645;-81
2023/01/24 09:33:14;;;;;;;0.50;0.50;;;2.40;99.90;;;;;;5066145;28;20444;-81
2023/01/24 09:35:39;;;;;;;0.50;0.50;;;2.40;99.90;;;;;;5064863;28;20447;-81
2023/01/24 09:38:05;;;;;;;0.50;0.50;;;2.30;99.90;;;;;;5068900;28;20440;-83
2023/01/24 09:40:44;;;;;;;0.50;0.50;;;2.40;99.90;;;;;;5064347;28;20267;-81
2023/01/24 09:43:35;;;;;;;0.50;0.50;;;2.40;99.90;;;;;;5069012;28;20177;-81
2023/01/24 09:46:12;;;;;;;0.40;0.40;;;2.60;99.90;;;;;;5058999;28;20440;-81
2023/01/24 09:48:38;;;;;;;0.43;0.43;;;2.60;99.90;;;;;;5054904;28;21065;-81
2023/01/24 09:51:13;;;;;;;0.40;0.40;;;2.70;99.90;;;;;;5067897;28;20443;-81
2023/01/24 09:53:45;;;;;;;0.50;0.50;;;2.80;99.90;;;;;;5057184;28;20673;-81
2023/01/24 09:56:30;;;;;;;0.40;0.40;;;2.80;99.90;;;;;;5067312;28;20451;-81
2023/01/24 09:59:10;;;;;;;0.40;0.40;;;2.80;99.90;;;;;;5066422;28;20463;-81
2023/01/24 10:01:40;;;;;;;0.50;0.50;;;2.60;99.90;;;;;;5052372;28;20445;-81
2023/01/24 10:04:34;;;;;;;0.40;0.40;;;2.60;99.90;;;;;;5062228;28;20451;-81
2023/01/24 10:07:12;;;;;;;0.40;0.40;;;2.50;99.90;;;;;;5059328;28;20449;-82
2023/01/24 10:09:38;;;;;;;0.43;0.43;;;2.60;99.90;;;;;;5060392;28;20431;-81
2023/01/24 10:12:39;;;;;;;0.40;0.40;;;2.50;99.90;;;;;;5064689;28;20452;-83
2023/01/24 10:15:28;;;;;;;0.40;0.40;;;2.60;99.90;;;;;;5065171;28;20569;-81
2023/01/24 10:18:17;;;;;;;0.40;0.40;;;2.70;99.90;;;;;;5055750;28;20447;-83
2023/01/24 10:20:47;;;;;;;0.37;0.37;;;2.70;99.90;;;;;;5053545;28;20959;-80
2023/01/24 10:23:25;;;;;;;0.40;0.40;;;2.80;99.90;;;;;;5067438;28;20534;-81
2023/01/24 10:25:54;;;;;;;0.47;0.47;;;2.80;99.90;;;;;;5065135;28;20467;-81
2023/01/24 10:28:38;;;;;;;0.33;0.33;;;2.80;99.90;;;;;;5064892;28;21001;-80
2023/01/24 10:31:07;;;;;;;0.40;0.40;;;2.80;99.90;;;;;;5060360;28;20437;-81
2023/01/24 10:33:50;;;;;;;0.30;0.30;;;2.80;99.90;;;;;;5070468;28;20432;-81
2023/01/24 10:36:32;;;;;;;0.30;0.30;;;2.80;99.90;;;;;;5071985;28;20513;-81
2023/01/24 10:38:58;;;;;;;0.30;0.30;;;2.80;99.90;;;;;;5071833;28;20582;-81
2023/01/24 10:41:26;;;;;;;0.40;0.40;;;2.80;99.90;;;;;;5058901;28;20443;-81
2023/01/24 10:44:25;;;;;;;0.50;0.50;;;2.70;99.90;;;;;;5062666;28;20196;-81
2023/01/24 10:47:12;;;;;;;0.33;0.33;;;2.80;99.90;;;;;;5068307;28;20526;-81
2023/01/24 10:49:43;;;;;;;0.40;0.40;;;2.80;99.90;;;;;;5069993;28;20451;-81
2023/01/24 10:52:20;;;;;;;0.40;0.40;;;2.70;99.90;;;;;;5069540;28;20447;-82
2023/01/24 10:54:53;;;;;;;0.50;0.50;;;2.70;99.90;;;;;;5068503;28;20475;-82
2023/01/24 10:57:28;;;;;;;0.40;0.40;;;2.70;99.90;;;;;;5069146;28;20808;-82
2023/01/24 10:59:54;;;;;;;0.40;0.40;;;2.80;99.90;;;;;;5072825;28;20475;-82
2023/01/24 11:02:23;;;;;;;0.50;0.50;;;2.80;99.90;;;;;;5059611;28;20437;-82
2023/01/24 11:05:04;;;;;;;0.40;0.40;;;2.60;99.90;;;;;;5052897;28;20440;-82
2023/01/24 11:07:32;;;;;;;0.30;0.30;;;2.60;99.90;;;;;;5071019;28;20454;-80
2023/01/24 11:10:00;;;;;;;0.40;0.40;;;2.60;99.90;;;;;;5057769;28;20436;-82
2023/01/24 11:12:27;;;;;;;0.30;0.30;;;2.70;99.90;;;;;;5069487;28;21220;-81
2023/01/24 11:14:53;;;;;;;0.40;0.40;;;2.70;99.90;;;;;;5067519;28;20576;-81
2023/01/24 11:17:32;;;;;;;0.40;0.40;;;2.70;99.90;;;;;;5064689;28;20760;-81
2023/01/24 11:20:01;;;;;;;0.40;0.40;;;2.70;99.90;;;;;;5063063;28;20721;-82
2023/01/24 11:22:34;;;;;;;0.30;0.30;;;2.70;99.90;;;;;;5065769;28;20434;-81
2023/01/24 11:25:02;;;;;;;0.40;0.40;;;2.80;99.90;;;;;;5068517;28;20447;-82
2023/01/24 11:27:27;;;;;;;0.30;0.30;;;2.80;99.90;;;;;;5066284;28;20444;-83
2023/01/24 11:30:16;;;;;;;0.40;0.40;;;2.70;99.90;;;;;;5063376;28;20497;-86
2023/01/24 11:33:10;;;;;;;0.40;0.40;;;2.70;99.90;;;;;;5069885;28;20206;-86
2023/01/24 11:35:42;;;;;;;0.40;0.40;;;2.50;99.90;;;;;;5069010;28;20547;-85
2023/01/24 11:38:31;;;;;;;0.30;0.30;;;2.50;99.90;;;;;;5061134;28;20501;-85
2023/01/24 11:41:21;;;;;;;0.40;0.40;;;2.40;99.90;;;;;;5056779;28;20462;-86
2023/01/24 11:44:11;;;;;;;0.40;0.40;;;2.50;99.90;;;;;;5064914;28;20438;-87
2023/01/24 11:47:07;;;;;;;0.33;0.33;;;2.60;99.90;;;;;;5067232;28;20452;-84
2023/01/24 11:49:48;;;;;;;0.43;0.43;;;2.50;99.90;;;;;;5065264;28;20542;-86
2023/01/24 11:52:45;;;;;;;0.50;0.50;;;2.70;99.90;;;;;;5063631;28;20440;-86
2023/01/24 11:55:44;;;;;;;0.40;0.40;;;2.70;99.90;;;;;;5063419;28;20539;-84
2023/01/24 11:58:18;;;;;;;0.40;0.40;;;2.70;99.90;;;;;;5069764;28;20521;-84
2023/01/24 12:01:16;;;;;;;0.40;0.40;;;2.80;99.90;;;;;;5063955;28;20478;-85
2023/01/24 12:03:48;;;;;;;0.40;0.40;;;2.80;99.90;;;;;;5066400;28;20567;-86
2023/01/24 12:06:41;;;;;;;0.50;0.50;;;2.80;99.90;;;;;;5065351;28;20436;-87
2023/01/24 12:09:17;;;;;;;0.50;0.50;;;2.70;99.90;;;;;;5058456;28;20530;-86
2023/01/24 12:12:12;;;;;;;0.40;0.40;;;2.70;99.90;;;;;;5068986;28;20470;-85
2023/01/24 12:14:54;;;;;;;0.50;0.50;;;2.70;99.90;;;;;;5065804;28;20494;-86
2023/01/24 12:17:19;;;;;;;0.47;0.47;;;2.70;99.90;;;;;;5070191;28;20974;-84
2023/01/24 12:19:57;;;;;;;0.30;0.30;;;2.70;99.90;;;;;;5068147;28;20471;-84
2023/01/24 12:22:29;;;;;;;0.40;0.40;;;2.50;99.90;;;;;;5068499;28;20422;-86
2023/01/24 12:25:01;;;;;;;0.40;0.40;;;2.40;99.90;;;;;;5055966;28;20459;-87
2023/01/24 12:27:31;;;;;;;0.40;0.40;;;2.50;99.90;;;;;;5066677;28;20439;-86
2023/01/24 12:30:07;;;;;;;0.33;0.33;;;2.60;99.90;;;;;;5059691;28;20501;-83
2023/01/24 12:32:56;;;;;;;0.47;0.47;;;2.70;99.90;;;;;;5066830;28;20534;-87
2023/01/24 12:35:45;;;;;;;0.40;0.40;;;2.50;99.90;;;;;;5066813;28;20436;-86
2023/01/24 12:38:34;;;;;;;0.50;0.50;;;2.40;99.90;;;;;;5069811;28;20500;-86
2023/01/24 12:41:02;;;;;;;0.40;0.40;;;2.60;99.90;;;;;;5064931;28;20445;-84
2023/01/24 12:43:48;;;;;;;0.40;0.40;;;2.60;99.90;;;;;;5065681;28;20966;-84
2023/01/24 12:46:17;;;;;;;0.40;0.40;;;2.50;99.90;;;;;;5067073;28;20795;-85
2023/01/24 12:48:52;;;;;;;0.40;0.40;;;2.60;99.90;;;;;;5069078;28;20472;-82
2023/01/24 12:51:28;;;;;;;0.40;0.40;;;2.60;99.90;;;;;;5058123;28;20451;-83
2023/01/24 12:54:06;;;;;;;0.40;0.40;;;2.60;99.90;;;;;;5066571;28;20483;-82
2023/01/24 12:56:50;;;;;;;0.50;0.50;;;2.50;99.90;;;;;;5063480;28;20455;-82
2023/01/24 12:59:24;;;;;;;0.47;0.47;;;2.40;99.90;;;;;;5061846;28;20480;-79
2023/01/24 13:02:17;;;;;;;0.40;0.40;;;2.50;99.90;;;;;;5058445;28;20541;-79
2023/01/24 13:05:08;;;;;;;0.40;0.40;;;2.60;99.90;;;;;;5057742;28;20481;-79
2023/01/24 13:07:49;;;;;;;0.40;0.40;;;2.50;99.90;;;;;;5067569;28;20424;-79
2023/01/24 13:10:18;;;;;;;0.43;0.43;;;2.50;99.90;;;;;;5066795;28;20440;-79
2023/01/24 13:12:45;;;;;;;0.50;0.50;;;2.60;99.90;;;;;;5069143;28;20440;-79
2023/01/24 13:15:16;;;;;;;0.30;0.30;;;2.60;99.90;;;;;;5058104;28;20463;-79
2023/01/24 13:18:02;;;;;;;0.40;0.40;;;2.60;99.90;;;;;;5074734;28;20817;-79
2023/01/24 13:21:00;;;;;;;0.50;0.50;;;2.70;99.90;;;;;;5064952;28;20595;-82
2023/01/24 13:24:08;;;;;;;0.50;0.50;;;2.60;99.90;;;;;;5035776;28;20995;-81
2023/01/24 13:27:04;;;;;;;0.30;0.30;;;2.70;99.90;;;;;;5044876;28;20532;-81
2023/01/24 13:29:58;;;;;;;0.33;0.33;;;2.70;99.90;;;;;;5068657;28;20452;-82
2023/01/24 13:32:24;;;;;;;0.40;0.40;;;2.60;99.90;;;;;;5061659;28;20505;-81
2023/01/24 13:34:54;;;;;;;0.40;0.40;;;2.60;99.90;;;;;;5060867;28;20454;-81
2023/01/24 13:37:27;;;;;;;0.30;0.30;;;2.60;99.90;;;;;;5062087;28;20448;-82
2023/01/24 13:40:19;;;;;;;0.40;0.40;;;2.60;99.90;;;;;;5066662;28;20516;-81
2023/01/24 13:42:45;;;;;;;0.37;0.37;;;2.60;99.90;;;;;;5062119;28;20451;-81
2023/01/24 13:45:39;;;;;;;0.30;0.30;;;2.50;99.90;;;;;;5063068;28;20955;-81
2023/01/24 13:48:39;;;;;;;0.50;0.50;;;2.70;99.90;;;;;;5061325;28;20440;-81
2023/01/24 13:51:27;;;;;;;0.40;0.40;;;2.50;99.90;;;;;;5063005;28;20444;-82
2023/01/24 13:53:58;;;;;;;0.40;0.40;;;2.40;99.90;;;;;;5057941;28;20498;-81